Time;durP1;ratioP1;P1;durP2;ratioP2;P2;SDS_P1;SDS_P2;PMS_P1;PMS_P2;Temp;Humidity;BMP_temperature;BMP_pressure;BME280_temperature;BME280_humidity;BME280_pressure;Samples;Min_cycle;Max_cycle;Signal;HPM_P1;HPM_P2
2021/01/07 00:00:48;;;;;;;10.23;5.72;;;2.00;93.30;;;;;;4979603;28;20041;-56
2021/01/07 00:03:14;;;;;;;12.48;5.57;;;2.00;93.30;;;;;;4976021;28;20042;-56
2021/01/07 00:05:40;;;;;;;9.50;5.53;;;2.00;93.30;;;;;;4966382;28;20450;-56
2021/01/07 00:08:06;;;;;;;9.30;5.45;;;2.00;93.30;;;;;;4976497;28;20042;-56
2021/01/07 00:10:32;;;;;;;9.15;4.88;;;2.00;93.30;;;;;;4964412;28;20755;-56
2021/01/07 00:12:57;;;;;;;10.93;5.57;;;2.00;93.30;;;;;;4959869;28;20138;-56
2021/01/07 00:15:23;;;;;;;11.25;5.85;;;2.00;93.30;;;;;;4993398;28;20046;-57
2021/01/07 00:17:48;;;;;;;11.80;5.60;;;2.00;93.40;;;;;;4975060;28;20047;-55
2021/01/07 00:20:15;;;;;;;9.63;5.40;;;2.00;93.30;;;;;;4987394;28;20035;-57
2021/01/07 00:22:40;;;;;;;9.75;4.90;;;2.00;93.30;;;;;;4975240;28;20046;-56
2021/01/07 00:25:09;;;;;;;8.18;4.82;;;2.10;93.30;;;;;;4975605;28;20047;-56
2021/01/07 00:27:35;;;;;;;9.55;5.30;;;2.00;93.30;;;;;;4991798;28;20042;-56
2021/01/07 00:30:04;;;;;;;8.98;5.28;;;2.00;93.30;;;;;;4983478;28;20042;-56
2021/01/07 00:32:30;;;;;;;8.70;4.68;;;2.00;93.30;;;;;;4986266;28;20411;-56
2021/01/07 00:34:56;;;;;;;11.13;5.15;;;2.00;93.30;;;;;;4979979;28;20125;-56
2021/01/07 00:37:22;;;;;;;10.23;5.22;;;2.00;93.40;;;;;;4976857;28;20463;-56
2021/01/07 00:39:47;;;;;;;10.45;4.85;;;2.00;93.40;;;;;;4991009;28;20126;-56
2021/01/07 00:42:16;;;;;;;9.02;5.10;;;2.00;93.30;;;;;;4986412;28;20125;-54
2021/01/07 00:44:42;;;;;;;7.97;4.70;;;2.00;93.40;;;;;;4986672;28;20051;-55
2021/01/07 00:47:08;;;;;;;7.38;4.15;;;2.00;93.40;;;;;;4988983;28;20061;-55
2021/01/07 00:49:34;;;;;;;10.48;4.63;;;2.00;93.30;;;;;;4980783;28;20054;-56
2021/01/07 00:51:59;;;;;;;8.50;4.38;;;2.00;93.40;;;;;;4973646;28;20128;-55
2021/01/07 00:54:26;;;;;;;10.88;4.68;;;2.00;93.40;;;;;;4985860;28;20110;-56
2021/01/07 00:56:52;;;;;;;7.30;4.47;;;2.00;93.40;;;;;;4985183;28;20112;-56
2021/01/07 00:59:18;;;;;;;8.48;3.78;;;2.00;93.40;;;;;;4991150;28;20046;-55
2021/01/07 01:01:46;;;;;;;9.02;4.00;;;2.00;93.40;;;;;;4980549;28;20073;-55
2021/01/07 01:04:13;;;;;;;9.50;4.00;;;2.10;93.40;;;;;;4978882;28;20138;-54
2021/01/07 01:06:38;;;;;;;7.28;3.95;;;2.00;93.40;;;;;;4978524;28;20051;-56
2021/01/07 01:09:05;;;;;;;8.30;3.83;;;2.00;93.40;;;;;;4980273;28;20061;-55
2021/01/07 01:11:52;;;;;;;5.70;3.58;;;1.90;93.50;;;;;;4967647;28;20076;-55
2021/01/07 01:14:19;;;;;;;8.35;3.90;;;1.90;93.40;;;;;;4983476;28;20069;-55
2021/01/07 01:16:50;;;;;;;5.68;3.25;;;1.90;93.50;;;;;;4973587;28;20031;-56
2021/01/07 01:19:19;;;;;;;6.35;3.47;;;2.00;93.60;;;;;;4983627;28;20034;-56
2021/01/07 01:21:45;;;;;;;6.70;3.60;;;1.90;93.60;;;;;;4976330;28;20057;-56
2021/01/07 01:24:11;;;;;;;6.72;3.60;;;1.90;93.60;;;;;;4974181;28;20053;-56
2021/01/07 01:26:37;;;;;;;5.32;3.20;;;1.90;93.60;;;;;;4989944;28;20050;-56
2021/01/07 01:29:03;;;;;;;7.13;3.47;;;1.90;93.60;;;;;;4986395;28;20042;-56
2021/01/07 01:31:29;;;;;;;6.45;3.50;;;1.90;93.60;;;;;;4967717;28;20493;-56
2021/01/07 01:33:55;;;;;;;6.03;2.80;;;1.90;93.60;;;;;;4987927;28;20356;-55
2021/01/07 01:36:27;;;;;;;5.85;3.28;;;1.90;93.60;;;;;;4980065;28;20047;-56
2021/01/07 01:38:53;;;;;;;4.70;2.53;;;1.90;93.60;;;;;;4990175;28;20127;-56
2021/01/07 01:41:19;;;;;;;6.53;3.40;;;1.90;93.60;;;;;;4982581;28;20555;-56
2021/01/07 01:43:45;;;;;;;4.75;2.83;;;1.90;93.60;;;;;;4980313;28;20049;-56
2021/01/07 01:46:10;;;;;;;7.00;2.95;;;1.90;93.70;;;;;;4984761;28;20043;-56
2021/01/07 01:48:36;;;;;;;5.65;2.85;;;1.90;93.70;;;;;;4993954;28;20053;-56
2021/01/07 01:51:02;;;;;;;5.65;2.65;;;1.80;93.70;;;;;;4988242;28;20038;-57
2021/01/07 01:53:30;;;;;;;5.35;2.72;;;1.80;93.70;;;;;;4983733;28;20539;-58
2021/01/07 01:55:56;;;;;;;4.40;2.70;;;1.80;93.70;;;;;;4992766;28;20047;-57
2021/01/07 01:58:22;;;;;;;6.05;2.78;;;1.90;93.70;;;;;;4982702;28;20061;-56
2021/01/07 02:00:48;;;;;;;7.40;2.97;;;1.90;93.70;;;;;;4977578;28;20112;-57
2021/01/07 02:03:14;;;;;;;5.95;3.10;;;1.90;93.70;;;;;;4980509;28;20027;-57
2021/01/07 02:05:40;;;;;;;4.68;2.95;;;1.90;93.70;;;;;;4972699;28;20047;-57
2021/01/07 02:08:08;;;;;;;6.65;3.08;;;1.90;93.70;;;;;;4989425;28;20042;-57
2021/01/07 02:10:34;;;;;;;5.72;3.25;;;1.90;93.70;;;;;;4981996;28;20050;-57
2021/01/07 02:13:03;;;;;;;5.90;3.33;;;1.90;93.70;;;;;;4984981;28;20490;-57
2021/01/07 02:15:29;;;;;;;7.20;3.45;;;2.00;93.70;;;;;;4973467;28;20035;-57
2021/01/07 02:17:58;;;;;;;7.15;3.42;;;2.00;93.70;;;;;;4983903;28;20622;-56
2021/01/07 02:20:26;;;;;;;5.82;3.38;;;2.00;94.00;;;;;;4991582;28;20042;-57
2021/01/07 02:22:56;;;;;;;6.70;3.45;;;1.90;93.70;;;;;;4987992;28;20402;-57
2021/01/07 02:25:22;;;;;;;5.57;3.47;;;1.90;93.70;;;;;;4994435;28;20088;-54
2021/01/07 02:27:50;;;;;;;5.30;3.30;;;1.90;93.70;;;;;;4993895;28;20085;-54
2021/01/07 02:30:16;;;;;;;6.88;3.58;;;2.00;93.70;;;;;;4958468;28;20038;-54
2021/01/07 02:32:42;;;;;;;6.72;3.28;;;2.00;93.70;;;;;;4990969;28;20069;-53
2021/01/07 02:35:09;;;;;;;5.85;3.25;;;2.00;93.70;;;;;;4965992;28;20046;-54
2021/01/07 02:37:36;;;;;;;8.27;3.17;;;2.00;93.70;;;;;;4983302;28;20384;-51
2021/01/07 02:40:04;;;;;;;6.53;3.65;;;2.00;93.70;;;;;;4975809;28;20409;-50
2021/01/07 02:42:30;;;;;;;8.20;3.30;;;1.90;93.70;;;;;;4970537;28;20137;-56
2021/01/07 02:44:56;;;;;;;5.18;3.20;;;2.00;93.80;;;;;;4963286;28;20479;-54
2021/01/07 02:47:21;;;;;;;5.78;3.20;;;2.00;93.70;;;;;;4982135;28;20034;-53
2021/01/07 02:49:47;;;;;;;6.45;3.50;;;2.00;93.80;;;;;;4980935;28;20070;-50
2021/01/07 02:52:13;;;;;;;6.38;2.97;;;2.00;93.80;;;;;;4978930;28;20106;-54
2021/01/07 02:54:40;;;;;;;6.65;3.10;;;2.00;93.80;;;;;;4984032;28;20120;-53
2021/01/07 02:57:06;;;;;;;4.45;2.50;;;2.00;93.80;;;;;;4985571;28;20066;-56
2021/01/07 02:59:31;;;;;;;5.82;2.92;;;2.00;93.80;;;;;;4989237;28;20510;-54
2021/01/07 03:01:57;;;;;;;5.72;2.83;;;2.00;93.80;;;;;;4987068;28;20041;-51
2021/01/07 03:04:23;;;;;;;5.72;3.03;;;2.00;93.80;;;;;;4990949;28;20050;-53
2021/01/07 03:06:49;;;;;;;6.70;3.20;;;2.00;93.80;;;;;;4970487;28;20038;-53
2021/01/07 03:09:15;;;;;;;6.15;3.15;;;2.00;93.80;;;;;;4974182;28;20047;-54
2021/01/07 03:11:41;;;;;;;5.57;2.85;;;2.10;93.90;;;;;;4983535;28;20039;-56
2021/01/07 03:14:07;;;;;;;5.55;2.78;;;2.10;93.80;;;;;;4979715;28;20046;-53
2021/01/07 03:16:34;;;;;;;6.10;2.65;;;2.10;93.90;;;;;;4969450;28;20418;-57
2021/01/07 03:19:01;;;;;;;8.25;2.83;;;2.10;93.90;;;;;;4968295;28;20042;-57
2021/01/07 03:21:27;;;;;;;5.88;3.03;;;2.10;93.90;;;;;;4966474;28;20119;-52
2021/01/07 03:23:53;;;;;;;8.68;3.05;;;2.10;94.00;;;;;;4984222;28;20123;-53
2021/01/07 03:26:18;;;;;;;5.32;2.60;;;2.00;94.00;;;;;;4975910;28;20039;-59
2021/01/07 03:28:45;;;;;;;7.22;2.50;;;2.00;93.90;;;;;;4985208;28;20054;-53
2021/01/07 03:31:10;;;;;;;7.05;3.05;;;2.00;94.00;;;;;;4959150;28;20407;-59
2021/01/07 03:33:37;;;;;;;7.15;3.20;;;2.10;94.00;;;;;;4971322;28;20103;-53
2021/01/07 03:36:04;;;;;;;7.07;2.90;;;2.10;94.00;;;;;;4961968;28;20050;-52
2021/01/07 03:38:29;;;;;;;5.20;2.78;;;2.10;93.90;;;;;;4975329;28;20035;-54
2021/01/07 03:40:56;;;;;;;6.05;2.80;;;2.10;94.00;;;;;;4973915;28;20074;-55
2021/01/07 03:43:23;;;;;;;5.10;2.65;;;2.10;93.90;;;;;;4953814;28;20043;-53
2021/01/07 03:45:49;;;;;;;4.55;2.30;;;2.10;93.90;;;;;;4978964;28;20096;-56
2021/01/07 03:48:14;;;;;;;4.18;2.13;;;2.20;93.90;;;;;;4965565;28;20509;-51
2021/01/07 03:50:40;;;;;;;4.35;2.47;;;2.10;93.80;;;;;;4978274;28;20039;-50
2021/01/07 03:53:06;;;;;;;4.30;2.50;;;2.10;93.90;;;;;;4975220;28;20400;-55
2021/01/07 03:55:31;;;;;;;4.75;2.40;;;2.10;93.90;;;;;;4976784;28;20554;-55
2021/01/07 03:57:57;;;;;;;5.32;2.33;;;2.10;93.90;;;;;;4980180;28;20050;-54
2021/01/07 04:00:23;;;;;;;3.53;2.15;;;2.10;93.90;;;;;;4979291;28;20223;-53
2021/01/07 04:02:48;;;;;;;4.85;2.13;;;2.10;93.90;;;;;;4980676;28;20399;-54
2021/01/07 04:05:14;;;;;;;3.90;2.22;;;2.10;93.90;;;;;;4971852;28;20042;-53
2021/01/07 04:07:40;;;;;;;5.97;2.42;;;2.10;93.80;;;;;;4987841;28;20046;-56
2021/01/07 04:10:07;;;;;;;6.55;2.20;;;2.10;93.80;;;;;;4981821;28;20039;-56
2021/01/07 04:12:34;;;;;;;5.93;2.50;;;2.00;93.70;;;;;;4975954;28;20034;-51
2021/01/07 04:15:03;;;;;;;4.38;2.22;;;2.00;93.70;;;;;;4975373;28;20371;-57
2021/01/07 04:17:29;;;;;;;3.42;2.28;;;2.00;93.70;;;;;;4985191;28;20042;-57
2021/01/07 04:19:55;;;;;;;4.05;2.25;;;2.00;93.70;;;;;;4980673;28;20115;-53
2021/01/07 04:22:21;;;;;;;7.63;3.00;;;1.90;93.70;;;;;;4988519;28;20042;-53
2021/01/07 04:24:46;;;;;;;5.68;2.70;;;2.00;93.80;;;;;;4985373;28;20509;-51
2021/01/07 04:27:12;;;;;;;6.68;2.63;;;1.90;93.80;;;;;;4987917;28;20467;-52
2021/01/07 04:29:39;;;;;;;5.22;2.58;;;1.90;93.70;;;;;;4975792;28;20050;-54
2021/01/07 04:32:05;;;;;;;6.78;2.90;;;1.90;93.80;;;;;;4975548;28;20117;-53
2021/01/07 04:34:30;;;;;;;5.70;2.72;;;1.90;93.70;;;;;;4979145;28;20129;-54
2021/01/07 04:36:56;;;;;;;6.50;3.05;;;1.90;93.70;;;;;;4994325;28;20042;-57
2021/01/07 04:39:22;;;;;;;5.72;2.83;;;1.90;93.80;;;;;;4974962;28;20497;-60
2021/01/07 04:41:47;;;;;;;8.02;3.13;;;1.80;93.70;;;;;;4978677;28;20042;-57
2021/01/07 04:44:13;;;;;;;5.97;2.90;;;1.90;93.80;;;;;;4988642;28;20133;-53
2021/01/07 04:46:39;;;;;;;5.15;2.83;;;1.80;93.80;;;;;;4993558;28;20553;-56
2021/01/07 04:49:05;;;;;;;6.00;2.95;;;1.90;93.80;;;;;;4979454;28;20117;-57
2021/01/07 04:51:31;;;;;;;8.43;3.10;;;1.90;93.90;;;;;;4960706;28;20053;-56
2021/01/07 04:53:57;;;;;;;6.30;2.85;;;1.90;93.90;;;;;;4984422;28;20030;-56
2021/01/07 04:56:23;;;;;;;6.18;2.95;;;1.90;93.90;;;;;;4979353;28;20030;-57
2021/01/07 04:58:48;;;;;;;6.40;2.95;;;1.90;93.80;;;;;;4985577;28;20038;-56
2021/01/07 05:01:14;;;;;;;4.95;2.80;;;1.90;93.90;;;;;;4986038;28;20043;-58
2021/01/07 05:03:45;;;;;;;7.15;2.90;;;1.90;93.80;;;;;;4993192;28;20070;-57
2021/01/07 05:06:11;;;;;;;7.13;3.33;;;1.90;93.80;;;;;;4991566;28;20042;-57
2021/01/07 05:08:36;;;;;;;6.72;2.63;;;2.00;93.80;;;;;;4992174;28;20038;-56
2021/01/07 05:11:02;;;;;;;6.57;3.00;;;2.00;93.90;;;;;;4992206;28;20545;-57
2021/01/07 05:13:28;;;;;;;6.90;2.90;;;2.00;93.80;;;;;;4986769;28;20291;-53
2021/01/07 05:15:53;;;;;;;7.57;2.88;;;1.90;93.80;;;;;;4974032;28;20043;-56
2021/01/07 05:18:19;;;;;;;6.25;3.03;;;2.00;93.80;;;;;;4987622;28;20436;-56
2021/01/07 05:20:45;;;;;;;5.45;2.72;;;2.00;93.90;;;;;;4983286;28;20092;-52
2021/01/07 05:23:11;;;;;;;7.05;2.90;;;2.00;93.80;;;;;;4991076;28;20046;-50
2021/01/07 05:25:44;;;;;;;9.15;3.13;;;2.00;93.90;;;;;;4970733;28;20049;-57
2021/01/07 05:28:11;;;;;;;;;;;2.00;93.90;;;;;;4988748;28;20503;-53
2021/01/07 05:30:38;;;;;;;6.68;3.03;;;2.00;94.00;;;;;;4991835;28;20349;-56
2021/01/07 05:33:09;;;;;;;6.10;2.80;;;2.00;93.90;;;;;;4983085;28;20046;-57
2021/01/07 05:35:35;;;;;;;6.90;3.17;;;2.00;93.90;;;;;;4967778;28;20043;-57
2021/01/07 05:38:05;;;;;;;8.75;3.20;;;2.00;93.90;;;;;;4981858;28;20149;-56
2021/01/07 05:40:32;;;;;;;7.60;2.90;;;2.00;93.90;;;;;;4978094;28;20490;-57
2021/01/07 05:43:01;;;;;;;4.90;2.72;;;2.10;94.00;;;;;;4985874;28;20043;-57
2021/01/07 05:45:36;;;;;;;5.45;2.75;;;2.10;94.00;;;;;;4979870;28;20042;-57
2021/01/07 05:48:03;;;;;;;6.65;3.05;;;2.10;94.00;;;;;;4985966;28;20052;-57
2021/01/07 05:50:36;;;;;;;5.80;2.75;;;2.10;94.00;;;;;;4989047;28;20046;-56
2021/01/07 05:53:03;;;;;;;5.63;2.70;;;2.10;94.00;;;;;;4991998;28;20034;-57
2021/01/07 05:55:30;;;;;;;5.18;2.60;;;2.10;94.10;;;;;;4979444;28;20038;-57
2021/01/07 05:58:02;;;;;;;5.85;2.60;;;2.20;94.10;;;;;;4988470;28;20034;-56
2021/01/07 06:00:31;;;;;;;5.78;2.75;;;2.20;94.10;;;;;;4980996;28;20051;-57
2021/01/07 06:03:02;;;;;;;6.00;2.85;;;2.20;94.00;;;;;;4979538;28;20042;-58
2021/01/07 06:05:28;;;;;;;4.85;2.47;;;2.20;94.10;;;;;;4990447;28;20101;-58
2021/01/07 06:07:55;;;;;;;5.80;2.80;;;2.20;94.10;;;;;;4987797;28;20049;-57
2021/01/07 06:10:22;;;;;;;5.53;2.78;;;2.20;94.10;;;;;;4990780;28;20050;-58
2021/01/07 06:12:48;;;;;;;6.35;2.90;;;2.30;94.10;;;;;;4978172;28;20049;-57
2021/01/07 06:15:17;;;;;;;5.95;2.92;;;2.30;94.20;;;;;;4987655;28;20042;-56
2021/01/07 06:17:44;;;;;;;5.50;2.33;;;2.30;94.10;;;;;;4986329;28;20049;-57
2021/01/07 06:20:21;;;;;;;8.05;2.88;;;2.40;94.20;;;;;;4986081;28;20042;-58
2021/01/07 06:22:52;;;;;;;6.00;2.80;;;2.30;94.20;;;;;;4981049;28;20038;-57
2021/01/07 06:25:19;;;;;;;5.57;2.78;;;2.30;94.10;;;;;;4953014;28;20104;-56
2021/01/07 06:27:46;;;;;;;6.85;2.80;;;2.40;94.20;;;;;;4986658;28;20038;-58
2021/01/07 06:30:12;;;;;;;6.07;2.58;;;2.30;94.10;;;;;;4977634;28;20035;-57
2021/01/07 06:32:39;;;;;;;5.80;2.38;;;2.40;94.20;;;;;;4983991;28;20062;-57
2021/01/07 06:35:10;;;;;;;4.55;2.30;;;2.40;94.20;;;;;;4991356;28;20046;-58
2021/01/07 06:37:41;;;;;;;5.80;2.60;;;2.40;94.10;;;;;;4988354;28;20046;-57
2021/01/07 06:40:09;;;;;;;5.78;2.40;;;2.40;94.20;;;;;;4986175;28;20041;-57
2021/01/07 06:42:37;;;;;;;6.63;2.47;;;2.40;94.20;;;;;;4985766;28;20042;-57
2021/01/07 06:45:05;;;;;;;6.15;2.40;;;2.40;94.20;;;;;;4989373;28;20049;-58
2021/01/07 06:47:32;;;;;;;5.85;2.63;;;2.50;94.20;;;;;;4974133;28;20042;-57
2021/01/07 06:49:59;;;;;;;7.30;2.25;;;2.50;94.10;;;;;;4977821;28;20043;-57
2021/01/07 06:52:26;;;;;;;4.53;2.30;;;2.50;94.10;;;;;;4979428;28;20422;-57
2021/01/07 06:54:56;;;;;;;6.95;2.67;;;2.50;94.10;;;;;;4982199;28;20042;-58
2021/01/07 06:57:22;;;;;;;6.10;2.53;;;2.50;94.10;;;;;;4989458;28;20038;-57
2021/01/07 06:59:56;;;;;;;4.88;2.55;;;2.60;94.20;;;;;;4973019;28;20054;-57
2021/01/07 07:02:23;;;;;;;4.55;2.42;;;2.60;94.10;;;;;;4972822;28;20042;-58
2021/01/07 07:05:05;;;;;;;5.25;2.47;;;2.60;94.20;;;;;;4971647;28;20035;-57
2021/01/07 07:07:37;;;;;;;5.38;2.83;;;2.60;94.20;;;;;;4988322;28;20045;-56
2021/01/07 07:10:18;;;;;;;6.65;2.85;;;2.60;94.20;;;;;;4967130;28;20046;-57
2021/01/07 07:12:51;;;;;;;6.63;2.80;;;2.60;94.20;;;;;;4986460;28;20050;-57
2021/01/07 07:15:21;;;;;;;8.57;3.00;;;2.60;94.10;;;;;;4969958;28;20495;-56
2021/01/07 07:17:47;;;;;;;5.35;2.97;;;2.60;94.20;;;;;;4990209;28;20053;-57
2021/01/07 07:20:20;;;;;;;6.10;2.75;;;2.60;94.10;;;;;;4986170;28;20081;-57
2021/01/07 07:22:46;;;;;;;7.22;2.67;;;2.70;94.20;;;;;;4990393;28;20137;-56
2021/01/07 07:25:21;;;;;;;6.40;2.40;;;2.70;94.20;;;;;;4954500;28;20443;-58
2021/01/07 07:27:58;;;;;;;6.40;2.80;;;2.70;94.10;;;;;;4973260;28;20553;-57
2021/01/07 07:30:26;;;;;;;5.13;2.60;;;2.60;94.20;;;;;;4984777;28;20062;-57
2021/01/07 07:32:54;;;;;;;7.97;2.95;;;2.70;94.20;;;;;;4988282;28;20105;-57
2021/01/07 07:35:41;;;;;;;5.15;2.80;;;2.70;94.20;;;;;;4984884;28;20511;-57
2021/01/07 07:38:12;;;;;;;6.97;2.60;;;2.70;94.20;;;;;;4986356;28;20054;-57
2021/01/07 07:40:42;;;;;;;6.32;2.92;;;2.70;94.10;;;;;;4956257;28;20338;-56
2021/01/07 07:43:09;;;;;;;5.80;2.50;;;2.70;94.20;;;;;;4990219;28;20042;-58
2021/01/07 07:45:38;;;;;;;5.30;2.70;;;2.70;94.10;;;;;;4984158;28;20038;-57
2021/01/07 07:48:08;;;;;;;5.28;2.70;;;2.70;94.10;;;;;;4981273;28;20082;-57
2021/01/07 07:50:36;;;;;;;5.05;2.85;;;2.70;94.10;;;;;;4993825;28;20461;-57
2021/01/07 07:53:10;;;;;;;5.72;2.58;;;2.70;94.10;;;;;;4966190;28;20045;-58
2021/01/07 07:55:37;;;;;;;7.32;2.80;;;2.70;94.10;;;;;;4951629;28;20050;-57
2021/01/07 07:58:18;;;;;;;5.30;2.95;;;2.70;94.20;;;;;;4959872;28;20093;-58
2021/01/07 08:00:59;;;;;;;8.98;2.83;;;2.70;94.20;;;;;;4989045;28;20042;-57
2021/01/07 08:03:32;;;;;;;5.45;2.72;;;2.70;94.10;;;;;;4985734;28;20042;-56
2021/01/07 08:05:59;;;;;;;7.00;2.67;;;2.70;94.10;;;;;;4961073;28;20046;-57
2021/01/07 08:08:26;;;;;;;5.85;2.78;;;2.70;94.10;;;;;;4981796;28;20042;-57
2021/01/07 08:10:53;;;;;;;5.47;2.53;;;2.70;94.10;;;;;;4983449;28;20045;-57
2021/01/07 08:13:21;;;;;;;6.35;2.70;;;2.70;94.10;;;;;;4982240;28;20038;-58
2021/01/07 08:15:48;;;;;;;4.95;2.50;;;2.70;94.10;;;;;;4980251;28;20094;-57
2021/01/07 08:18:15;;;;;;;5.22;2.28;;;2.70;94.10;;;;;;4987852;28;20141;-57
2021/01/07 08:20:41;;;;;;;5.97;2.60;;;2.80;94.10;;;;;;4981998;28;20502;-57
2021/01/07 08:23:12;;;;;;;5.78;2.88;;;2.80;94.10;;;;;;4972725;28;20070;-60
2021/01/07 08:25:40;;;;;;;6.57;2.40;;;2.80;94.20;;;;;;4969840;28;20256;-60
2021/01/07 08:28:32;;;;;;;4.47;2.33;;;2.80;94.20;;;;;;4987802;28;20038;-60
2021/01/07 08:31:03;;;;;;;7.78;2.60;;;2.90;94.20;;;;;;4967369;28;20557;-60
2021/01/07 08:33:30;;;;;;;6.30;2.20;;;2.90;94.20;;;;;;4980694;28;20087;-60
2021/01/07 08:36:04;;;;;;;4.68;2.40;;;3.00;94.20;;;;;;4985833;28;20097;-59
2021/01/07 08:38:32;;;;;;;6.50;2.42;;;3.00;94.10;;;;;;4992756;28;20046;-59
2021/01/07 08:41:10;;;;;;;6.38;2.35;;;3.00;94.10;;;;;;4990151;28;20042;-59
2021/01/07 08:43:37;;;;;;;8.30;2.70;;;3.00;94.10;;;;;;4981561;28;21788;-59
2021/01/07 08:46:12;;;;;;;5.97;2.63;;;3.00;94.10;;;;;;4988262;28;20109;-59
2021/01/07 08:48:39;;;;;;;5.57;2.83;;;3.00;94.10;;;;;;4987482;28;20165;-59
2021/01/07 08:51:21;;;;;;;5.20;2.70;;;3.10;94.00;;;;;;4965261;28;20054;-57
2021/01/07 08:53:55;;;;;;;5.80;3.10;;;3.00;94.10;;;;;;4983641;28;20047;-57
2021/01/07 08:56:38;;;;;;;6.60;3.13;;;3.10;94.10;;;;;;4981901;28;20043;-57
2021/01/07 08:59:30;;;;;;;6.28;2.92;;;3.10;94.10;;;;;;4982954;28;20522;-55
2021/01/07 09:02:21;;;;;;;5.57;2.78;;;3.10;94.10;;;;;;4967060;28;20049;-57
2021/01/07 09:04:54;;;;;;;5.82;2.83;;;3.10;94.10;;;;;;4977519;28;20129;-57
2021/01/07 09:07:20;;;;;;;;;;;3.10;94.10;;;;;;4976885;28;20053;-57
2021/01/07 09:09:57;;;;;;;5.60;2.88;;;3.20;94.20;;;;;;4981444;28;19925;-57
2021/01/07 09:12:34;;;;;;;4.53;2.60;;;3.20;94.10;;;;;;4964288;28;20042;-58
2021/01/07 09:15:05;;;;;;;5.78;2.60;;;3.20;94.00;;;;;;4993007;28;20045;-56
2021/01/07 09:17:55;;;;;;;6.93;2.97;;;3.20;94.10;;;;;;4961079;28;20458;-57
2021/01/07 09:20:28;;;;;;;6.40;2.67;;;3.20;94.10;;;;;;4960265;28;20050;-57
2021/01/07 09:23:02;;;;;;;5.43;2.78;;;3.20;94.10;;;;;;4975140;28;20430;-58
2021/01/07 09:25:27;;;;;;;7.15;2.80;;;3.20;94.10;;;;;;4967279;28;20051;-59
2021/01/07 09:27:56;;;;;;;5.25;2.67;;;3.20;94.10;;;;;;4978292;28;20046;-60
2021/01/07 09:30:22;;;;;;;5.93;2.67;;;3.30;94.10;;;;;;4980042;28;20125;-60
2021/01/07 09:32:47;;;;;;;6.22;2.47;;;3.20;94.00;;;;;;4986651;28;20614;-56
2021/01/07 09:35:14;;;;;;;6.75;2.63;;;3.30;94.10;;;;;;4990303;28;20058;-57
2021/01/07 09:37:39;;;;;;;6.03;2.88;;;3.30;94.10;;;;;;4991901;28;20088;-57
2021/01/07 09:40:06;;;;;;;7.78;2.75;;;3.30;94.10;;;;;;4992601;28;20047;-55
2021/01/07 09:42:32;;;;;;;9.05;2.53;;;3.30;94.10;;;;;;4985915;28;20166;-57
2021/01/07 09:44:59;;;;;;;4.32;2.20;;;3.40;94.10;;;;;;4990071;28;20109;-57
2021/01/07 09:47:25;;;;;;;5.68;2.25;;;3.40;94.10;;;;;;4984341;28;20114;-57
2021/01/07 09:49:51;;;;;;;4.75;2.20;;;3.40;94.10;;;;;;4988376;28;20081;-56
2021/01/07 09:52:16;;;;;;;5.38;2.42;;;3.40;94.10;;;;;;4984191;28;20043;-56
2021/01/07 09:54:42;;;;;;;5.30;2.38;;;3.40;94.10;;;;;;4991510;28;20096;-57
2021/01/07 09:57:08;;;;;;;5.60;2.30;;;3.40;94.10;;;;;;4984203;28;20498;-54
2021/01/07 09:59:34;;;;;;;4.13;2.33;;;3.50;94.10;;;;;;4993341;28;20120;-57
2021/01/07 10:02:05;;;;;;;4.38;2.30;;;3.50;94.10;;;;;;4981655;28;20069;-57
2021/01/07 10:04:31;;;;;;;4.75;2.30;;;3.50;94.10;;;;;;4984525;28;20050;-57
2021/01/07 10:06:57;;;;;;;4.28;2.40;;;3.50;94.10;;;;;;4981645;28;20215;-57
2021/01/07 10:09:23;;;;;;;5.55;2.30;;;3.60;94.10;;;;;;4983832;28;20043;-57
2021/01/07 10:11:50;;;;;;;4.53;2.30;;;3.60;94.10;;;;;;4988148;28;20084;-57
2021/01/07 10:14:17;;;;;;;6.50;2.30;;;3.60;94.10;;;;;;4991753;28;20047;-57
2021/01/07 10:16:49;;;;;;;4.45;2.28;;;3.60;94.00;;;;;;4991437;28;20042;-56
2021/01/07 10:19:16;;;;;;;7.07;2.60;;;3.60;94.00;;;;;;4987472;28;20119;-56
2021/01/07 10:21:46;;;;;;;3.70;2.00;;;3.60;94.00;;;;;;4977614;28;20564;-57
2021/01/07 10:24:12;;;;;;;6.93;2.33;;;3.60;94.00;;;;;;4989312;28;20046;-57
2021/01/07 10:26:38;;;;;;;6.40;2.40;;;3.70;94.00;;;;;;4982171;28;20351;-56
2021/01/07 10:29:03;;;;;;;7.32;2.17;;;3.70;94.00;;;;;;4960672;28;20481;-57
2021/01/07 10:31:30;;;;;;;7.70;2.22;;;3.70;94.00;;;;;;4991848;28;20045;-57
2021/01/07 10:33:56;;;;;;;7.95;2.30;;;3.70;94.10;;;;;;4991706;28;20034;-55
2021/01/07 10:36:22;;;;;;;4.60;2.17;;;3.70;94.10;;;;;;4984151;28;20450;-56
2021/01/07 10:38:49;;;;;;;6.63;2.28;;;3.70;94.10;;;;;;4992007;28;20031;-56
2021/01/07 10:41:15;;;;;;;5.68;2.38;;;3.70;94.10;;;;;;4972035;28;20050;-57
2021/01/07 10:43:41;;;;;;;4.40;2.30;;;3.70;94.10;;;;;;5001686;28;20125;-56
2021/01/07 10:46:07;;;;;;;6.63;2.17;;;3.70;94.20;;;;;;4977294;28;20038;-56
2021/01/07 10:48:43;;;;;;;5.28;2.03;;;3.80;94.10;;;;;;4980054;28;20042;-56
2021/01/07 10:51:10;;;;;;;4.78;2.20;;;3.80;94.10;;;;;;4990841;28;20046;-57
2021/01/07 10:53:59;;;;;;;4.63;2.30;;;3.80;94.00;;;;;;4986199;28;20034;-57
2021/01/07 10:56:36;;;;;;;5.57;1.90;;;3.80;94.00;;;;;;4982687;28;20082;-57
2021/01/07 10:59:07;;;;;;;9.07;2.45;;;3.80;94.00;;;;;;4987512;28;20066;-57
2021/01/07 11:01:42;;;;;;;8.48;2.13;;;3.90;94.00;;;;;;4965017;28;20073;-57
2021/01/07 11:04:30;;;;;;;5.47;2.00;;;3.90;94.00;;;;;;4977971;28;20303;-55
2021/01/07 11:07:07;;;;;;;3.78;1.95;;;3.90;94.20;;;;;;4990610;28;20045;-56
2021/01/07 11:09:37;;;;;;;5.85;2.10;;;3.90;93.90;;;;;;4991337;28;20057;-56
2021/01/07 11:12:08;;;;;;;4.32;1.92;;;4.00;93.90;;;;;;4979104;28;20043;-56
2021/01/07 11:14:59;;;;;;;5.97;2.00;;;4.00;94.00;;;;;;4988658;28;20042;-57
2021/01/07 11:17:25;;;;;;;4.93;2.00;;;4.00;93.90;;;;;;4987592;28;20058;-55
2021/01/07 11:19:52;;;;;;;3.55;1.67;;;4.00;93.80;;;;;;4981915;28;20445;-54
2021/01/07 11:22:27;;;;;;;3.83;1.90;;;4.10;93.90;;;;;;4985069;28;20105;-55
2021/01/07 11:24:54;;;;;;;6.32;2.00;;;4.10;94.10;;;;;;4983278;28;20110;-56
2021/01/07 11:27:22;;;;;;;6.15;1.58;;;4.10;93.80;;;;;;4985104;28;20499;-56
2021/01/07 11:29:48;;;;;;;3.83;1.42;;;4.10;93.70;;;;;;4989326;28;20038;-56
2021/01/07 11:32:14;;;;;;;3.10;1.58;;;4.10;93.80;;;;;;4990242;28;20526;-57
2021/01/07 11:34:40;;;;;;;6.40;1.30;;;4.10;93.70;;;;;;4990436;28;20053;-56
2021/01/07 11:37:28;;;;;;;3.80;1.50;;;4.10;93.70;;;;;;4983114;28;20046;-57
2021/01/07 11:39:58;;;;;;;4.63;1.42;;;4.20;93.80;;;;;;4958716;28;20054;-56
2021/01/07 11:42:52;;;;;;;2.83;1.40;;;4.20;93.80;;;;;;4991427;28;20530;-57
2021/01/07 11:45:21;;;;;;;3.35;1.40;;;4.20;93.70;;;;;;4958820;28;20158;-56
2021/01/07 11:48:01;;;;;;;2.92;1.48;;;4.20;93.60;;;;;;4992268;28;20046;-60
2021/01/07 11:50:32;;;;;;;4.70;1.60;;;4.20;93.60;;;;;;4991973;28;20039;-58
2021/01/07 11:53:00;;;;;;;3.08;1.55;;;4.30;93.70;;;;;;4994476;28;20042;-59
2021/01/07 11:55:25;;;;;;;4.38;1.40;;;4.30;93.70;;;;;;4990697;28;20057;-59
2021/01/07 11:57:53;;;;;;;5.57;1.50;;;4.40;93.60;;;;;;4988379;28;20046;-58
2021/01/07 12:00:19;;;;;;;2.88;1.40;;;4.30;93.50;;;;;;4986478;28;20097;-58
2021/01/07 12:02:49;;;;;;;2.60;1.65;;;4.40;93.50;;;;;;4975004;28;20061;-56
2021/01/07 12:05:20;;;;;;;3.50;1.40;;;4.40;93.50;;;;;;4995212;28;20069;-52
2021/01/07 12:08:03;;;;;;;4.10;1.52;;;4.40;93.40;;;;;;4981828;28;20050;-56
2021/01/07 12:10:30;;;;;;;4.15;1.50;;;4.40;93.50;;;;;;4972764;28;20046;-53
2021/01/07 12:13:20;;;;;;;3.33;1.40;;;4.30;93.40;;;;;;4960530;28;20047;-53
2021/01/07 12:15:50;;;;;;;4.97;1.50;;;4.30;93.20;;;;;;4981046;28;20113;-56
2021/01/07 12:18:16;;;;;;;3.60;1.30;;;4.30;93.20;;;;;;4992038;28;20046;-53
2021/01/07 12:20:43;;;;;;;3.58;1.20;;;4.30;93.30;;;;;;4993277;28;20042;-59
2021/01/07 12:23:09;;;;;;;3.53;1.35;;;4.30;93.20;;;;;;4984804;28;20106;-59
2021/01/07 12:25:39;;;;;;;2.63;1.30;;;4.40;93.40;;;;;;4972748;28;20109;-60
2021/01/07 12:28:06;;;;;;;4.93;1.40;;;4.40;93.30;;;;;;4988553;28;20051;-58
2021/01/07 12:30:37;;;;;;;3.42;1.17;;;4.40;93.20;;;;;;4989055;28;20039;-60
2021/01/07 12:33:33;;;;;;;4.78;1.17;;;4.40;93.20;;;;;;4983397;28;20047;-59
2021/01/07 12:36:07;;;;;;;4.07;1.40;;;4.40;93.10;;;;;;4988440;28;20046;-58
2021/01/07 12:38:54;;;;;;;2.10;1.10;;;4.40;93.00;;;;;;4990442;28;20035;-58
2021/01/07 12:41:26;;;;;;;5.43;1.25;;;4.40;93.00;;;;;;4991720;28;20046;-59
2021/01/07 12:43:55;;;;;;;5.35;1.98;;;4.40;93.10;;;;;;4992822;28;20118;-59
2021/01/07 12:46:27;;;;;;;2.55;1.38;;;4.40;93.10;;;;;;4991236;28;20039;-60
2021/01/07 12:48:53;;;;;;;2.20;1.25;;;4.50;93.10;;;;;;4986939;28;20050;-59
2021/01/07 12:51:19;;;;;;;6.78;1.70;;;4.50;93.10;;;;;;4974577;28;20065;-59
2021/01/07 12:53:46;;;;;;;3.67;1.25;;;4.50;92.90;;;;;;4991956;28;20406;-59
2021/01/07 12:56:19;;;;;;;2.67;1.27;;;4.50;92.90;;;;;;4988817;28;20038;-59
2021/01/07 12:58:48;;;;;;;3.65;1.40;;;4.50;93.00;;;;;;4990288;28;20042;-60
2021/01/07 13:01:26;;;;;;;3.40;1.50;;;4.50;92.90;;;;;;4993481;28;20048;-59
2021/01/07 13:04:15;;;;;;;3.08;1.27;;;4.50;93.00;;;;;;4985540;28;20081;-59
2021/01/07 13:06:51;;;;;;;3.28;1.40;;;4.60;92.90;;;;;;4984682;28;20042;-60